Arbúcies





Hora UTC 07:25
Temperatura 2.3 ºC
Humitat 96.3 %
Pressió 1004.0 hPa
Pluja 0.1 mm
Velocitat vent 7.1 km/h
Direcció vent SW
Radiació solar 25.8 W/m²

Dades diàries 2019-11-15



Hora UTC (hivern +1h; estiu +2h)
Temperatura (ºC) Humitat (%) Pressió (hPa) Velocitat vent (km/h) Precipitació (mm) Radiació solar (W/m²)
Hora UTC Aire Humitat Pressió Vel. Dir. Vel. Max Dir. Intent. màx 5 min. Rad. Sol.
00:05 1.1 96.9 1003.0 6.0 SW 8.5 SW 0.0 0.0
00:10 1.1 96.9 1003.0 6.2 SW 8.8 SSW 0.0 0.0
00:15 1.1 96.9 1003.0 6.3 SW 8.5 SW 0.0 0.0
00:20 1.2 97.0 1003.0 5.7 SSW 10.2 SW 0.0 0.0
00:25 1.4 97.1 1003.0 6.4 SW 9.9 SW 0.0 0.0
00:30 1.3 97.0 1003.0 5.7 SW 8.8 SW 0.0 0.0
00:35 1.2 96.9 1003.0 8.8 SW 15.2 SW 0.0 0.0
00:40 1.3 97.0 1003.0 8.8 SW 12.7 WSW 0.0 0.0
00:45 1.2 97.0 1003.0 7.7 SW 12.7 WSW 0.0 0.0
00:50 1.4 97.1 1003.0 7.6 SW 13.4 SW 0.0 0.0
00:55 1.3 97.0 1003.0 6.2 SW 10.6 SW 0.0 0.0
01:00 1.3 96.9 1003.0 6.6 SW 10.6 SSW 0.0 0.0
01:05 1.4 97.0 1003.0 9.0 SW 12.3 SW 0.0 0.0
01:10 1.5 97.0 1003.0 7.9 SW 12.0 SW 0.0 0.0
01:15 1.4 97.0 1003.0 6.4 SW 8.8 SW 0.0 0.0
01:20 1.2 96.8 1003.0 5.3 SW 8.5 SW 0.0 0.0
01:25 1.0 96.8 1003.0 5.2 SW 8.1 SW 0.0 0.0
01:30 1.1 96.9 1003.0 5.1 SW 9.5 SW 0.1 0.0
01:35 1.1 97.0 1003.0 4.9 SW 8.1 SSW 0.0 0.0
01:40 1.2 97.1 1003.0 4.6 WSW 7.8 SW 0.0 0.0
01:45 1.2 97.0 1003.0 7.1 SW 9.9 SW 0.0 0.0
01:50 1.2 97.0 1003.0 7.6 SW 13.1 SW 0.0 0.0
01:55 1.5 97.2 1003.0 7.7 SW 12.7 WSW 0.0 0.0
02:00 1.6 97.1 1003.0 7.6 SW 14.1 SSW 0.0 0.0
02:05 1.7 97.0 1003.0 9.7 SW 14.5 SW 0.0 0.0
02:10 1.7 96.9 1003.0 7.5 SW 12.0 WSW 0.0 0.0
02:15 1.7 96.8 1003.0 5.6 WSW 10.6 SW 0.0 0.0
02:20 1.7 96.8 1003.0 5.6 SW 9.5 SW 0.0 0.0
02:25 1.8 96.7 1003.0 4.3 SSW 8.8 SSW 0.0 0.0
02:30 1.8 96.7 1003.0 7.8 SW 11.6 SW 0.0 0.0
02:35 1.6 96.5 1003.0 6.8 SW 9.2 SW 0.0 0.0
02:40 1.4 96.4 1003.0 8.2 SSW 10.6 SSW 0.0 0.0
02:45 1.3 96.6 1003.0 9.5 SSW 12.0 SSW 0.0 0.0
02:50 1.4 96.8 1003.0 4.3 SW 9.5 SW 0.0 0.0
02:55 1.5 96.8 1003.0 3.7 SSW 8.8 SSW 0.0 0.0
03:00 1.4 96.8 1004.0 5.2 SW 7.4 SW 0.0 0.0
03:05 1.3 96.7 1003.0 6.6 SW 9.5 SSW 0.0 0.0
03:10 1.4 96.8 1003.0 7.6 SW 10.2 SSW 0.0 0.0
03:15 1.3 96.8 1003.0 7.0 SW 9.5 SW 0.0 0.0
03:20 1.3 96.8 1003.0 7.7 SW 10.9 WSW 0.0 0.0
03:25 1.5 96.9 1003.0 7.0 SW 10.6 SSW 0.0 0.0
03:30 1.5 96.9 1003.0 8.1 SW 11.6 SSW 0.0 0.0
03:35 1.4 96.8 1003.0 3.5 WSW 6.4 SW 0.0 0.0
03:40 1.3 96.8 1003.0 3.9 SW 6.7 WSW 0.0 0.0
03:45 1.4 96.9 1003.0 6.5 SSW 10.9 SSW 0.0 0.0
03:50 1.6 97.0 1003.0 8.4 SSW 12.0 SSW 0.0 0.0
03:55 1.5 96.9 1003.0 7.6 SW 11.6 SW 0.0 0.0
04:00 1.5 96.9 1004.0 5.7 SW 9.5 SSW 0.0 0.0
04:05 1.5 96.8 1003.0 5.5 SW 7.8 SW 0.0 0.0
04:10 1.4 96.7 1003.0 5.2 SW 7.8 SSW 0.0 0.0
04:15 1.3 96.8 1003.0 6.6 SW 10.2 SW 0.0 0.0
04:20 1.5 96.9 1003.0 9.3 SW 14.1 WSW 0.0 0.0
04:25 1.8 97.0 1003.0 10.3 SW 16.9 SSW 0.0 0.0
04:30 1.9 97.0 1004.0 10.2 SW 14.8 SW 0.0 0.0
04:35 1.8 96.8 1003.0 8.3 SW 13.1 SW 0.0 0.0
04:40 1.8 96.7 1003.0 8.8 SW 15.5 WSW 0.0 0.0
04:45 1.7 96.7 1003.0 8.3 SW 13.1 WSW 0.0 0.0
04:50 1.8 96.8 1003.0 10.1 SW 16.6 SW 0.0 0.0
04:55 1.9 96.8 1003.0 7.6 SW 12.0 SW 0.0 0.0
05:00 1.7 96.5 1004.0 6.1 SW 8.1 SW 0.0 0.0
05:05 1.5 96.5 1003.0 5.6 WSW 8.5 SW 0.0 0.0
05:10 1.4 96.5 1003.0 5.2 SW 8.8 SW 0.0 0.0
05:15 1.6 96.8 1003.0 7.7 SW 14.1 SSW 0.0 0.0
05:20 1.8 96.9 1003.0 7.6 SW 10.9 WSW 0.0 0.0
05:25 1.7 96.7 1003.0 6.5 SW 11.3 SW 0.0 0.0
05:30 1.8 96.7 1004.0 8.7 SW 16.9 SW 0.0 0.0
05:35 1.9 96.8 1003.0 9.1 SW 13.4 WSW 0.0 0.0
05:40 2.0 96.6 1003.0 6.9 SW 11.6 SW 0.0 0.0
05:45 2.0 96.6 1003.0 8.1 SW 14.8 SW 0.0 0.0
05:50 2.0 96.5 1004.0 10.2 SW 16.6 SW 0.0 0.0
05:55 2.1 96.4 1003.0 9.6 SW 16.2 SW 0.0 0.0
06:00 2.1 96.3 1004.0 7.7 SW 15.2 SW 0.0 0.0
06:05 2.0 96.1 1003.0 7.8 SW 11.3 SW 0.0 0.0
06:10 2.0 96.2 1003.0 8.3 SW 14.1 SW 0.0 0.0
06:15 1.9 96.2 1003.0 8.2 SW 12.3 WSW 0.0 0.0
06:20 1.8 96.3 1003.0 8.8 SW 13.8 WSW 0.0 0.0
06:25 1.9 96.4 1003.0 9.5 SW 14.1 SW 0.0 0.0
06:30 1.9 96.3 1004.0 6.2 SW 13.1 SW 0.0 0.0
06:35 1.8 96.2 1003.0 6.6 SW 11.6 SSW 0.0 0.2
06:40 2.0 96.5 1003.0 10.1 SW 15.2 SW 0.0 1.6
06:45 2.0 96.3 1003.0 6.8 SW 12.0 SW 0.0 3.1
06:50 1.9 96.1 1003.0 5.3 SW 8.1 SW 0.0 5.2
06:55 1.9 96.2 1003.0 6.6 SW 12.0 WSW 0.0 8.3
07:00 2.0 96.4 1004.0 8.0 SW 14.1 SW 0.0 11.9
07:05 2.1 96.3 1004.0 7.6 SW 12.0 SW 0.0 15.0
07:10 2.1 96.2 1004.0 8.7 SW 13.4 SW 0.0 18.1
07:15 2.1 96.3 1004.0 8.4 SW 12.7 SSW 0.0 20.8
07:20 2.2 96.2 1004.0 6.4 SW 9.5 W 0.0 23.6
07:25 2.3 96.3 1004.0 7.1 SW 10.6 WSW 0.0 25.8
Màxima 2.3 97.2 1004.0 10.3 SW 16.9 SW 0.1 25.8
Mínima 1.0 96.1 1003.0
Total 0.1